Погода Гомес-Паласиона неделю

Дуранго, Мексика

25 - 31 июля
  • 25июля
    Сегодня
    +20°
    +31°
    Практически безоблачно
    ВремяПогодаТемператураВлажностьДавлениеВетер, м/сВероятность осадков
    00:00Небольшая облачность, ливень+22°C87 %673 мм0.8 м/с44 %
    03:00Ясно и безоблачно+22°C90 %672 мм0.8 м/с16 %
    06:00Облачно с прояснениями+20°C95 %672 мм1.7 м/с20 %
    09:00Ясно и безоблачно+24°C74 %673 мм1.9 м/с11 %
    12:00Практически безоблачно+28°C55 %673 мм3.0 м/с29 %
    15:00Практически безоблачно+30°C44 %672 мм4.0 м/с30 %
    18:00Практически безоблачно+30°C40 %671 мм4.4 м/с30 %
    21:00Ясно и безоблачно+26°C55 %671 мм3.7 м/с9 %
  • 26июля
    Пятница
    +20°
    +32°
    Ясно и безоблачно
    ВремяПогодаТемператураВлажностьДавлениеВетер, м/сВероятность осадков
    00:00Ясно и безоблачно+24°C69 %671 мм1.8 м/с1 %
    03:00Ясно и безоблачно+22°C79 %670 мм1.6 м/с3 %
    06:00Ясно и безоблачно+20°C87 %669 мм1.2 м/с2 %
    09:00Ясно и безоблачно+25°C67 %671 мм1.9 м/с2 %
    12:00Ясно и безоблачно+28°C39 %671 мм2.3 м/с20 %
    15:00Ясно и безоблачно+32°C29 %669 мм3.9 м/с11 %
    18:00Практически безоблачно+31°C28 %667 мм3.2 м/с4 %
    21:00Ясно и безоблачно+27°C40 %668 мм3.6 м/с2 %
  • 27июля
    Суббота
    +21°
    +34°
    Ясно и безоблачно
    ВремяПогодаТемператураВлажностьДавлениеВетер, м/сВероятность осадков
    00:00Ясно и безоблачно+25°C56 %668 мм2.1 м/с2 %
    03:00Ясно и безоблачно+22°C71 %667 мм0.9 м/с2 %
    06:00Ясно и безоблачно+21°C78 %667 мм0.5 м/с2 %
    09:00Ясно и безоблачно+25°C58 %669 мм1.6 м/с2 %
    12:00Ясно и безоблачно+30°C34 %669 мм1.7 м/с2 %
    15:00Ясно и безоблачно+33°C23 %667 мм2.8 м/с2 %
    18:00Ясно и безоблачно+32°C23 %665 мм4.1 м/с2 %
    21:00Ясно и безоблачно+29°C29 %666 мм2.9 м/с2 %
  • 28июля
    Воскресенье
    +23°
    +35°
    Ясно и безоблачно
    ВремяПогодаТемператураВлажностьДавлениеВетер, м/сВероятность осадков
    00:00Ясно и безоблачно+26°C55 %668 мм2.0 м/с2 %
    03:00Ясно и безоблачно+24°C69 %667 мм1.1 м/с2 %
    06:00Ясно и безоблачно+22°C83 %667 мм1.1 м/с2 %
    09:00Ясно и безоблачно+26°C60 %669 мм1.5 м/с2 %
    12:00Ясно и безоблачно+31°C30 %669 мм1.9 м/с2 %
    15:00Ясно и безоблачно+34°C19 %668 мм2.5 м/с2 %
    18:00Ясно и безоблачно+34°C16 %666 мм3.2 м/с5 %
    21:00Ясно и безоблачно+31°C23 %667 мм3.1 м/с5 %
Мы используем cookies
Соглашаюсь